sensor_id;sensor_type;location;lat;lon;timestamp;P1;durP1;ratioP1;P2;durP2;ratioP2
9884;SDS011;4981;50.966;4.842;2023-05-14T06:06:37;50.17;;;39.40;;
9884;SDS011;4981;50.966;4.842;2023-05-14T06:09:04;52.50;;;37.57;;
9884;SDS011;4981;50.966;4.842;2023-05-14T06:11:33;45.93;;;35.97;;
9884;SDS011;4981;50.966;4.842;2023-05-14T06:13:59;47.67;;;36.50;;
9884;SDS011;4981;50.966;4.842;2023-05-14T06:16:27;52.67;;;37.70;;
9884;SDS011;4981;50.966;4.842;2023-05-14T06:18:54;54.30;;;36.00;;
9884;SDS011;4981;50.966;4.842;2023-05-14T06:21:22;46.67;;;36.40;;
9884;SDS011;4981;50.966;4.842;2023-05-14T06:23:49;49.97;;;36.63;;
9884;SDS011;4981;50.966;4.842;2023-05-14T06:26:16;46.47;;;34.67;;
9884;SDS011;4981;50.966;4.842;2023-05-14T06:28:43;48.73;;;34.93;;
9884;SDS011;4981;50.966;4.842;2023-05-14T06:31:10;50.50;;;35.23;;
9884;SDS011;4981;50.966;4.842;2023-05-14T06:33:37;47.53;;;34.97;;
9884;SDS011;4981;50.966;4.842;2023-05-14T06:36:05;51.33;;;36.73;;
9884;SDS011;4981;50.966;4.842;2023-05-14T06:38:34;48.10;;;37.63;;
9884;SDS011;4981;50.966;4.842;2023-05-14T06:41:01;48.57;;;36.60;;
9884;SDS011;4981;50.966;4.842;2023-05-14T06:43:29;52.33;;;37.33;;
9884;SDS011;4981;50.966;4.842;2023-05-14T06:45:55;48.73;;;35.80;;
9884;SDS011;4981;50.966;4.842;2023-05-14T06:48:22;48.37;;;36.33;;
9884;SDS011;4981;50.966;4.842;2023-05-14T06:50:51;47.83;;;35.63;;
9884;SDS011;4981;50.966;4.842;2023-05-14T06:53:18;50.93;;;37.13;;
9884;SDS011;4981;50.966;4.842;2023-05-14T06:55:47;53.03;;;36.77;;
9884;SDS011;4981;50.966;4.842;2023-05-14T06:58:14;51.67;;;36.57;;
9884;SDS011;4981;50.966;4.842;2023-05-14T07:00:41;49.47;;;36.80;;
9884;SDS011;4981;50.966;4.842;2023-05-14T07:03:08;47.03;;;36.40;;
9884;SDS011;4981;50.966;4.842;2023-05-14T07:12:17;46.13;;;35.90;;
9884;SDS011;4981;50.966;4.842;2023-05-14T07:14:44;54.00;;;35.70;;
9884;SDS011;4981;50.966;4.842;2023-05-14T07:17:11;52.07;;;38.03;;
9884;SDS011;4981;50.966;4.842;2023-05-14T07:19:38;50.43;;;38.07;;
9884;SDS011;4981;50.966;4.842;2023-05-14T07:22:05;56.07;;;37.80;;
9884;SDS011;4981;50.966;4.842;2023-05-14T07:24:32;52.30;;;37.63;;
9884;SDS011;4981;50.966;4.842;2023-05-14T07:26:59;53.17;;;37.87;;
9884;SDS011;4981;50.966;4.842;2023-05-14T07:29:27;55.13;;;37.10;;
9884;SDS011;4981;50.966;4.842;2023-05-14T07:31:55;54.17;;;36.67;;
9884;SDS011;4981;50.966;4.842;2023-05-14T07:34:22;46.90;;;35.90;;
9884;SDS011;4981;50.966;4.842;2023-05-14T07:36:49;53.67;;;36.73;;
9884;SDS011;4981;50.966;4.842;2023-05-14T07:39:16;49.30;;;36.57;;
9884;SDS011;4981;50.966;4.842;2023-05-14T07:41:43;48.40;;;35.73;;
9884;SDS011;4981;50.966;4.842;2023-05-14T07:44:10;51.97;;;37.10;;
9884;SDS011;4981;50.966;4.842;2023-05-14T07:46:38;54.43;;;35.47;;
9884;SDS011;4981;50.966;4.842;2023-05-14T07:49:05;42.53;;;31.10;;
9884;SDS011;4981;50.966;4.842;2023-05-14T07:51:32;51.13;;;36.47;;
9884;SDS011;4981;50.966;4.842;2023-05-14T07:53:59;49.97;;;35.17;;
9884;SDS011;4981;50.966;4.842;2023-05-14T07:56:26;50.30;;;36.07;;
9884;SDS011;4981;50.966;4.842;2023-05-14T07:58:53;53.63;;;37.07;;
9884;SDS011;4981;50.966;4.842;2023-05-14T08:01:20;47.97;;;35.80;;
9884;SDS011;4981;50.966;4.842;2023-05-14T08:03:49;51.23;;;37.33;;
9884;SDS011;4981;50.966;4.842;2023-05-14T08:06:16;48.40;;;38.23;;
9884;SDS011;4981;50.966;4.842;2023-05-14T08:08:45;54.30;;;39.73;;
9884;SDS011;4981;50.966;4.842;2023-05-14T08:11:11;57.70;;;39.10;;
9884;SDS011;4981;50.966;4.842;2023-05-14T08:13:38;52.63;;;36.23;;
9884;SDS011;4981;50.966;4.842;2023-05-14T08:16:06;52.63;;;38.13;;
9884;SDS011;4981;50.966;4.842;2023-05-14T08:18:33;51.80;;;38.07;;
9884;SDS011;4981;50.966;4.842;2023-05-14T08:21:01;54.33;;;38.13;;
9884;SDS011;4981;50.966;4.842;2023-05-14T08:23:28;51.03;;;34.57;;
9884;SDS011;4981;50.966;4.842;2023-05-14T08:25:55;50.70;;;34.93;;
9884;SDS011;4981;50.966;4.842;2023-05-14T08:28:23;47.17;;;34.40;;
9884;SDS011;4981;50.966;4.842;2023-05-14T08:30:50;44.33;;;34.13;;
9884;SDS011;4981;50.966;4.842;2023-05-14T08:33:17;48.23;;;32.63;;
9884;SDS011;4981;50.966;4.842;2023-05-14T08:35:44;44.47;;;31.77;;
9884;SDS011;4981;50.966;4.842;2023-05-14T08:38:12;48.17;;;33.20;;
9884;SDS011;4981;50.966;4.842;2023-05-14T08:40:39;42.00;;;32.03;;
9884;SDS011;4981;50.966;4.842;2023-05-14T08:43:06;37.93;;;30.87;;
9884;SDS011;4981;50.966;4.842;2023-05-14T08:45:35;39.43;;;31.37;;
9884;SDS011;4981;50.966;4.842;2023-05-14T08:48:04;39.10;;;30.27;;
9884;SDS011;4981;50.966;4.842;2023-05-14T08:50:36;40.87;;;28.73;;
9884;SDS011;4981;50.966;4.842;2023-05-14T08:53:03;36.70;;;28.67;;
9884;SDS011;4981;50.966;4.842;2023-05-14T08:55:31;41.83;;;29.07;;
9884;SDS011;4981;50.966;4.842;2023-05-14T08:57:58;36.10;;;28.03;;
9884;SDS011;4981;50.966;4.842;2023-05-14T09:00:26;32.27;;;24.57;;
9884;SDS011;4981;50.966;4.842;2023-05-14T09:02:53;38.30;;;27.10;;
9884;SDS011;4981;50.966;4.842;2023-05-14T09:05:21;38.80;;;29.40;;
9884;SDS011;4981;50.966;4.842;2023-05-14T09:07:48;31.77;;;26.67;;
9884;SDS011;4981;50.966;4.842;2023-05-14T09:10:15;30.97;;;23.97;;
9884;SDS011;4981;50.966;4.842;2023-05-14T09:12:44;31.10;;;23.47;;
9884;SDS011;4981;50.966;4.842;2023-05-14T09:15:11;29.13;;;21.30;;
9884;SDS011;4981;50.966;4.842;2023-05-14T09:17:39;27.77;;;21.87;;
9884;SDS011;4981;50.966;4.842;2023-05-14T09:20:07;26.00;;;21.83;;
9884;SDS011;4981;50.966;4.842;2023-05-14T09:22:35;27.97;;;22.17;;
9884;SDS011;4981;50.966;4.842;2023-05-14T09:25:02;25.10;;;21.47;;
9884;SDS011;4981;50.966;4.842;2023-05-14T09:27:31;29.33;;;21.80;;
9884;SDS011;4981;50.966;4.842;2023-05-14T09:30:07;29.40;;;22.37;;
9884;SDS011;4981;50.966;4.842;2023-05-14T09:32:39;27.87;;;22.67;;
9884;SDS011;4981;50.966;4.842;2023-05-14T09:35:11;27.73;;;22.17;;
9884;SDS011;4981;50.966;4.842;2023-05-14T09:37:44;23.97;;;21.17;;
9884;SDS011;4981;50.966;4.842;2023-05-14T09:40:13;27.30;;;20.07;;
9884;SDS011;4981;50.966;4.842;2023-05-14T09:42:41;24.43;;;19.87;;
9884;SDS011;4981;50.966;4.842;2023-05-14T09:45:10;30.63;;;19.83;;
9884;SDS011;4981;50.966;4.842;2023-05-14T09:47:37;24.10;;;19.87;;
9884;SDS011;4981;50.966;4.842;2023-05-14T09:50:05;25.17;;;19.17;;
9884;SDS011;4981;50.966;4.842;2023-05-14T09:52:33;22.73;;;19.33;;
9884;SDS011;4981;50.966;4.842;2023-05-14T09:55:00;28.03;;;19.60;;
9884;SDS011;4981;50.966;4.842;2023-05-14T09:57:27;23.27;;;18.60;;
9884;SDS011;4981;50.966;4.842;2023-05-14T09:59:54;22.43;;;19.57;;
9884;SDS011;4981;50.966;4.842;2023-05-14T10:02:23;26.20;;;18.40;;
9884;SDS011;4981;50.966;4.842;2023-05-14T10:04:53;25.40;;;18.67;;
9884;SDS011;4981;50.966;4.842;2023-05-14T10:07:24;22.67;;;18.43;;
9884;SDS011;4981;50.966;4.842;2023-05-14T10:09:56;22.17;;;18.70;;
9884;SDS011;4981;50.966;4.842;2023-05-14T10:12:27;24.63;;;17.80;;
9884;SDS011;4981;50.966;4.842;2023-05-14T10:14:58;22.23;;;18.93;;
9884;SDS011;4981;50.966;4.842;2023-05-14T10:17:31;24.03;;;19.97;;
9884;SDS011;4981;50.966;4.842;2023-05-14T10:20:01;21.83;;;18.77;;
9884;SDS011;4981;50.966;4.842;2023-05-14T10:22:33;23.87;;;20.83;;
9884;SDS011;4981;50.966;4.842;2023-05-14T10:25:00;23.57;;;19.47;;
9884;SDS011;4981;50.966;4.842;2023-05-14T10:27:29;22.73;;;20.07;;
9884;SDS011;4981;50.966;4.842;2023-05-14T10:29:56;23.97;;;18.77;;
9884;SDS011;4981;50.966;4.842;2023-05-14T10:32:23;21.70;;;17.87;;
9884;SDS011;4981;50.966;4.842;2023-05-14T10:34:52;24.23;;;19.93;;
9884;SDS011;4981;50.966;4.842;2023-05-14T10:37:20;29.83;;;20.07;;
9884;SDS011;4981;50.966;4.842;2023-05-14T10:39:49;24.20;;;19.93;;
9884;SDS011;4981;50.966;4.842;2023-05-14T10:42:18;22.87;;;19.73;;
9884;SDS011;4981;50.966;4.842;2023-05-14T10:44:51;24.07;;;19.37;;
9884;SDS011;4981;50.966;4.842;2023-05-14T10:47:20;22.87;;;20.03;;
9884;SDS011;4981;50.966;4.842;2023-05-14T10:49:47;24.33;;;20.33;;
9884;SDS011;4981;50.966;4.842;2023-05-14T10:52:17;17.87;;;15.97;;
9884;SDS011;4981;50.966;4.842;2023-05-14T10:54:48;24.53;;;19.70;;
9884;SDS011;4981;50.966;4.842;2023-05-14T10:57:16;23.20;;;20.03;;
9884;SDS011;4981;50.966;4.842;2023-05-14T10:59:45;21.97;;;19.47;;
9884;SDS011;4981;50.966;4.842;2023-05-14T11:02:17;23.83;;;21.23;;
9884;SDS011;4981;50.966;4.842;2023-05-14T11:04:53;26.13;;;20.63;;
9884;SDS011;4981;50.966;4.842;2023-05-14T11:07:24;22.67;;;20.30;;
9884;SDS011;4981;50.966;4.842;2023-05-14T11:09:55;23.10;;;19.47;;
9884;SDS011;4981;50.966;4.842;2023-05-14T11:12:26;24.70;;;20.17;;
9884;SDS011;4981;50.966;4.842;2023-05-14T11:14:53;25.53;;;20.60;;
9884;SDS011;4981;50.966;4.842;2023-05-14T11:17:22;24.53;;;19.47;;
9884;SDS011;4981;50.966;4.842;2023-05-14T11:19:49;21.63;;;19.33;;
9884;SDS011;4981;50.966;4.842;2023-05-14T11:22:16;25.67;;;19.93;;
9884;SDS011;4981;50.966;4.842;2023-05-14T11:24:45;19.53;;;17.50;;
9884;SDS011;4981;50.966;4.842;2023-05-14T11:27:12;24.53;;;20.97;;
9884;SDS011;4981;50.966;4.842;2023-05-14T11:29:42;22.87;;;20.47;;
9884;SDS011;4981;50.966;4.842;2023-05-14T11:32:10;23.07;;;20.63;;
9884;SDS011;4981;50.966;4.842;2023-05-14T11:34:38;22.37;;;19.80;;
9884;SDS011;4981;50.966;4.842;2023-05-14T11:37:05;24.13;;;20.03;;
9884;SDS011;4981;50.966;4.842;2023-05-14T11:39:34;20.90;;;18.80;;
9884;SDS011;4981;50.966;4.842;2023-05-14T11:42:03;24.83;;;18.83;;
9884;SDS011;4981;50.966;4.842;2023-05-14T11:44:37;22.33;;;18.57;;
9884;SDS011;4981;50.966;4.842;2023-05-14T11:47:04;22.73;;;18.67;;
9884;SDS011;4981;50.966;4.842;2023-05-14T11:49:31;20.33;;;17.43;;
9884;SDS011;4981;50.966;4.842;2023-05-14T11:52:00;21.87;;;18.57;;
9884;SDS011;4981;50.966;4.842;2023-05-14T11:54:28;23.87;;;18.37;;
9884;SDS011;4981;50.966;4.842;2023-05-14T11:56:56;23.70;;;18.90;;
9884;SDS011;4981;50.966;4.842;2023-05-14T11:59:26;25.57;;;19.07;;
9884;SDS011;4981;50.966;4.842;2023-05-14T12:01:54;20.03;;;17.90;;
9884;SDS011;4981;50.966;4.842;2023-05-14T12:04:21;19.37;;;17.30;;
9884;SDS011;4981;50.966;4.842;2023-05-14T12:06:48;19.20;;;16.93;;
9884;SDS011;4981;50.966;4.842;2023-05-14T12:09:15;18.60;;;16.60;;
9884;SDS011;4981;50.966;4.842;2023-05-14T12:11:44;22.38;;;16.42;;
9884;SDS011;4981;50.966;4.842;2023-05-14T12:14:13;16.20;;;14.63;;
9884;SDS011;4981;50.966;4.842;2023-05-14T12:16:43;16.90;;;15.10;;
9884;SDS011;4981;50.966;4.842;2023-05-14T12:19:12;15.60;;;13.67;;
9884;SDS011;4981;50.966;4.842;2023-05-14T12:21:41;16.85;;;12.93;;
9884;SDS011;4981;50.966;4.842;2023-05-14T12:24:09;18.67;;;13.05;;
9884;SDS011;4981;50.966;4.842;2023-05-14T12:26:37;19.05;;;13.50;;
9884;SDS011;4981;50.966;4.842;2023-05-14T12:29:04;18.05;;;16.13;;
9884;SDS011;4981;50.966;4.842;2023-05-14T12:31:32;18.33;;;14.80;;
9884;SDS011;4981;50.966;4.842;2023-05-14T12:34:01;19.38;;;16.20;;
9884;SDS011;4981;50.966;4.842;2023-05-14T12:36:29;14.80;;;13.30;;
9884;SDS011;4981;50.966;4.842;2023-05-14T12:38:57;17.10;;;15.40;;
9884;SDS011;4981;50.966;4.842;2023-05-14T12:41:27;15.95;;;14.27;;
9884;SDS011;4981;50.966;4.842;2023-05-14T12:43:55;17.88;;;13.10;;
9884;SDS011;4981;50.966;4.842;2023-05-14T12:46:22;17.90;;;12.60;;
9884;SDS011;4981;50.966;4.842;2023-05-14T12:48:50;14.20;;;11.23;;
9884;SDS011;4981;50.966;4.842;2023-05-14T12:51:18;14.93;;;12.00;;
9884;SDS011;4981;50.966;4.842;2023-05-14T12:53:46;16.88;;;13.43;;
9884;SDS011;4981;50.966;4.842;2023-05-14T12:56:13;17.10;;;11.93;;
9884;SDS011;4981;50.966;4.842;2023-05-14T12:58:40;13.13;;;11.82;;
9884;SDS011;4981;50.966;4.842;2023-05-14T13:01:07;28.33;;;13.23;;
9884;SDS011;4981;50.966;4.842;2023-05-14T13:03:34;17.45;;;13.48;;
9884;SDS011;4981;50.966;4.842;2023-05-14T13:06:05;15.40;;;13.43;;
9884;SDS011;4981;50.966;4.842;2023-05-14T13:08:34;18.52;;;14.77;;
9884;SDS011;4981;50.966;4.842;2023-05-14T13:11:01;17.98;;;15.23;;
9884;SDS011;4981;50.966;4.842;2023-05-14T13:13:28;15.77;;;13.80;;
9884;SDS011;4981;50.966;4.842;2023-05-14T13:15:55;17.85;;;14.80;;
9884;SDS011;4981;50.966;4.842;2023-05-14T13:18:22;21.85;;;16.45;;
9884;SDS011;4981;50.966;4.842;2023-05-14T13:20:50;13.52;;;12.10;;
9884;SDS011;4981;50.966;4.842;2023-05-14T13:23:17;18.80;;;16.70;;
9884;SDS011;4981;50.966;4.842;2023-05-14T13:25:46;17.88;;;14.85;;
9884;SDS011;4981;50.966;4.842;2023-05-14T13:28:13;16.80;;;14.88;;
9884;SDS011;4981;50.966;4.842;2023-05-14T13:30:40;18.75;;;16.90;;
9884;SDS011;4981;50.966;4.842;2023-05-14T13:33:07;17.10;;;15.38;;
9884;SDS011;4981;50.966;4.842;2023-05-14T13:35:33;15.90;;;13.50;;
9884;SDS011;4981;50.966;4.842;2023-05-14T13:38:00;15.95;;;12.77;;
9884;SDS011;4981;50.966;4.842;2023-05-14T13:40:27;13.00;;;11.13;;
9884;SDS011;4981;50.966;4.842;2023-05-14T13:42:56;13.45;;;11.02;;
9884;SDS011;4981;50.966;4.842;2023-05-14T13:45:23;13.00;;;9.77;;
9884;SDS011;4981;50.966;4.842;2023-05-14T13:47:50;15.13;;;13.30;;
9884;SDS011;4981;50.966;4.842;2023-05-14T13:50:17;13.80;;;11.93;;
9884;SDS011;4981;50.966;4.842;2023-05-14T13:52:45;11.73;;;10.52;;
9884;SDS011;4981;50.966;4.842;2023-05-14T13:55:12;13.10;;;11.43;;
9884;SDS011;4981;50.966;4.842;2023-05-14T13:57:39;12.50;;;9.20;;
9884;SDS011;4981;50.966;4.842;2023-05-14T14:00:09;9.18;;;7.72;;
9884;SDS011;4981;50.966;4.842;2023-05-14T14:02:37;10.75;;;8.70;;
9884;SDS011;4981;50.966;4.842;2023-05-14T14:05:04;11.80;;;10.63;;
9884;SDS011;4981;50.966;4.842;2023-05-14T14:07:32;15.75;;;14.05;;
9884;SDS011;4981;50.966;4.842;2023-05-14T14:09:59;15.60;;;12.13;;
9884;SDS011;4981;50.966;4.842;2023-05-14T14:12:26;15.38;;;12.13;;
9884;SDS011;4981;50.966;4.842;2023-05-14T14:14:53;15.75;;;11.68;;
9884;SDS011;4981;50.966;4.842;2023-05-14T14:17:21;15.95;;;11.80;;
9884;SDS011;4981;50.966;4.842;2023-05-14T14:19:48;16.50;;;12.70;;
9884;SDS011;4981;50.966;4.842;2023-05-14T14:22:15;20.13;;;11.82;;
9884;SDS011;4981;50.966;4.842;2023-05-14T14:24:42;12.80;;;11.52;;
9884;SDS011;4981;50.966;4.842;2023-05-14T14:27:09;16.58;;;11.80;;
9884;SDS011;4981;50.966;4.842;2023-05-14T14:29:36;15.05;;;11.70;;
9884;SDS011;4981;50.966;4.842;2023-05-14T14:32:03;16.15;;;11.32;;
9884;SDS011;4981;50.966;4.842;2023-05-14T14:34:32;14.30;;;12.43;;
9884;SDS011;4981;50.966;4.842;2023-05-14T14:37:01;13.35;;;12.05;;
9884;SDS011;4981;50.966;4.842;2023-05-14T14:39:28;13.80;;;11.75;;
9884;SDS011;4981;50.966;4.842;2023-05-14T14:41:55;17.92;;;11.50;;
9884;SDS011;4981;50.966;4.842;2023-05-14T14:44:22;12.43;;;11.23;;
9884;SDS011;4981;50.966;4.842;2023-05-14T14:46:49;15.35;;;11.65;;
9884;SDS011;4981;50.966;4.842;2023-05-14T14:49:16;13.20;;;10.48;;
9884;SDS011;4981;50.966;4.842;2023-05-14T14:51:44;11.20;;;10.10;;
9884;SDS011;4981;50.966;4.842;2023-05-14T14:54:11;15.07;;;11.38;;
9884;SDS011;4981;50.966;4.842;2023-05-14T14:56:38;16.40;;;11.77;;
9884;SDS011;4981;50.966;4.842;2023-05-14T14:59:07;13.60;;;10.98;;
9884;SDS011;4981;50.966;4.842;2023-05-14T15:01:34;15.82;;;9.52;;
9884;SDS011;4981;50.966;4.842;2023-05-14T15:04:00;15.25;;;12.15;;
9884;SDS011;4981;50.966;4.842;2023-05-14T15:06:27;17.08;;;12.30;;
9884;SDS011;4981;50.966;4.842;2023-05-14T15:08:56;15.75;;;11.00;;
9884;SDS011;4981;50.966;4.842;2023-05-14T15:11:23;13.38;;;10.40;;
9884;SDS011;4981;50.966;4.842;2023-05-14T15:13:50;16.08;;;11.52;;
9884;SDS011;4981;50.966;4.842;2023-05-14T15:16:17;15.60;;;11.05;;
9884;SDS011;4981;50.966;4.842;2023-05-14T15:18:44;14.60;;;10.43;;
9884;SDS011;4981;50.966;4.842;2023-05-14T15:21:11;13.73;;;10.20;;
9884;SDS011;4981;50.966;4.842;2023-05-14T15:23:38;13.77;;;11.70;;
9884;SDS011;4981;50.966;4.842;2023-05-14T15:26:06;19.10;;;12.25;;
9884;SDS011;4981;50.966;4.842;2023-05-14T15:28:33;17.42;;;12.25;;
9884;SDS011;4981;50.966;4.842;2023-05-14T15:31:00;15.65;;;12.02;;
9884;SDS011;4981;50.966;4.842;2023-05-14T15:33:28;15.70;;;10.90;;
9884;SDS011;4981;50.966;4.842;2023-05-14T15:35:55;15.98;;;10.65;;
9884;SDS011;4981;50.966;4.842;2023-05-14T15:38:22;21.20;;;10.52;;
9884;SDS011;4981;50.966;4.842;2023-05-14T15:40:49;13.85;;;10.73;;
9884;SDS011;4981;50.966;4.842;2023-05-14T15:43:17;18.23;;;11.82;;
9884;SDS011;4981;50.966;4.842;2023-05-14T15:45:44;15.10;;;11.13;;
9884;SDS011;4981;50.966;4.842;2023-05-14T15:48:11;16.02;;;11.30;;
9884;SDS011;4981;50.966;4.842;2023-05-14T15:50:38;18.17;;;11.13;;
9884;SDS011;4981;50.966;4.842;2023-05-14T15:53:05;16.38;;;9.93;;
9884;SDS011;4981;50.966;4.842;2023-05-14T15:55:32;15.73;;;9.90;;
9884;SDS011;4981;50.966;4.842;2023-05-14T15:57:59;14.02;;;9.77;;
9884;SDS011;4981;50.966;4.842;2023-05-14T16:00:28;14.18;;;10.13;;
9884;SDS011;4981;50.966;4.842;2023-05-14T16:02:55;14.73;;;9.73;;
9884;SDS011;4981;50.966;4.842;2023-05-14T16:05:22;17.65;;;9.48;;
9884;SDS011;4981;50.966;4.842;2023-05-14T16:07:49;16.40;;;9.52;;
9884;SDS011;4981;50.966;4.842;2023-05-14T16:10:17;16.90;;;9.18;;
9884;SDS011;4981;50.966;4.842;2023-05-14T16:12:45;15.80;;;8.90;;
9884;SDS011;4981;50.966;4.842;2023-05-14T16:15:12;17.10;;;10.02;;
9884;SDS011;4981;50.966;4.842;2023-05-14T16:17:40;12.52;;;8.25;;
9884;SDS011;4981;50.966;4.842;2023-05-14T16:20:07;17.42;;;9.13;;
9884;SDS011;4981;50.966;4.842;2023-05-14T16:22:35;14.13;;;9.35;;
9884;SDS011;4981;50.966;4.842;2023-05-14T16:25:02;18.50;;;9.18;;
9884;SDS011;4981;50.966;4.842;2023-05-14T16:27:29;17.40;;;9.15;;
9884;SDS011;4981;50.966;4.842;2023-05-14T16:29:57;15.65;;;9.13;;
9884;SDS011;4981;50.966;4.842;2023-05-14T16:32:24;16.48;;;9.02;;
9884;SDS011;4981;50.966;4.842;2023-05-14T16:34:53;14.38;;;9.02;;
9884;SDS011;4981;50.966;4.842;2023-05-14T16:37:20;17.83;;;9.18;;
9884;SDS011;4981;50.966;4.842;2023-05-14T16:39:47;23.30;;;9.38;;
9884;SDS011;4981;50.966;4.842;2023-05-14T16:42:14;13.80;;;8.30;;
9884;SDS011;4981;50.966;4.842;2023-05-14T16:44:41;20.02;;;8.75;;
9884;SDS011;4981;50.966;4.842;2023-05-14T16:47:08;13.50;;;8.23;;
9884;SDS011;4981;50.966;4.842;2023-05-14T16:49:35;14.50;;;8.70;;
9884;SDS011;4981;50.966;4.842;2023-05-14T16:52:04;16.90;;;9.02;;
9884;SDS011;4981;50.966;4.842;2023-05-14T16:54:32;14.75;;;9.05;;
9884;SDS011;4981;50.966;4.842;2023-05-14T16:56:59;16.38;;;9.95;;
9884;SDS011;4981;50.966;4.842;2023-05-14T16:59:26;23.58;;;10.38;;
9884;SDS011;4981;50.966;4.842;2023-05-14T17:01:53;14.57;;;10.40;;
9884;SDS011;4981;50.966;4.842;2023-05-14T17:04:20;15.70;;;10.03;;
9884;SDS011;4981;50.966;4.842;2023-05-14T17:06:49;13.88;;;9.80;;
9884;SDS011;4981;50.966;4.842;2023-05-14T17:09:17;16.37;;;10.07;;
9884;SDS011;4981;50.966;4.842;2023-05-14T17:11:44;12.23;;;8.98;;
9884;SDS011;4981;50.966;4.842;2023-05-14T17:14:11;19.52;;;9.50;;
9884;SDS011;4981;50.966;4.842;2023-05-14T17:16:38;16.45;;;9.02;;
9884;SDS011;4981;50.966;4.842;2023-05-14T17:19:06;16.77;;;9.82;;
9884;SDS011;4981;50.966;4.842;2023-05-14T17:21:33;16.92;;;8.95;;
9884;SDS011;4981;50.966;4.842;2023-05-14T17:24:00;16.07;;;9.80;;
9884;SDS011;4981;50.966;4.842;2023-05-14T17:26:29;16.20;;;8.93;;
9884;SDS011;4981;50.966;4.842;2023-05-14T17:28:56;16.17;;;9.10;;
9884;SDS011;4981;50.966;4.842;2023-05-14T17:31:23;13.30;;;8.50;;
9884;SDS011;4981;50.966;4.842;2023-05-14T17:33:49;16.27;;;8.20;;
9884;SDS011;4981;50.966;4.842;2023-05-14T17:36:16;17.30;;;8.80;;
9884;SDS011;4981;50.966;4.842;2023-05-14T17:38:43;15.13;;;8.70;;
9884;SDS011;4981;50.966;4.842;2023-05-14T17:41:10;16.80;;;8.00;;
9884;SDS011;4981;50.966;4.842;2023-05-14T17:43:39;15.13;;;9.00;;
9884;SDS011;4981;50.966;4.842;2023-05-14T17:46:06;14.07;;;8.10;;
9884;SDS011;4981;50.966;4.842;2023-05-14T17:48:33;13.83;;;8.00;;
9884;SDS011;4981;50.966;4.842;2023-05-14T17:51:00;16.97;;;8.43;;
9884;SDS011;4981;50.966;4.842;2023-05-14T17:53:27;13.73;;;8.83;;
9884;SDS011;4981;50.966;4.842;2023-05-14T17:55:53;12.27;;;7.67;;
9884;SDS011;4981;50.966;4.842;2023-05-14T17:58:20;12.20;;;7.50;;
9884;SDS011;4981;50.966;4.842;2023-05-14T18:00:49;14.77;;;7.30;;
9884;SDS011;4981;50.966;4.842;2023-05-14T18:03:16;13.60;;;7.50;;
9884;SDS011;4981;50.966;4.842;2023-05-14T18:05:44;14.57;;;8.13;;
9884;SDS011;4981;50.966;4.842;2023-05-14T18:08:11;12.47;;;7.60;;
9884;SDS011;4981;50.966;4.842;2023-05-14T18:10:38;11.67;;;7.57;;
9884;SDS011;4981;50.966;4.842;2023-05-14T18:13:05;13.50;;;8.63;;
9884;SDS011;4981;50.966;4.842;2023-05-14T18:15:32;10.17;;;6.80;;
9884;SDS011;4981;50.966;4.842;2023-05-14T18:18:02;11.67;;;7.13;;
9884;SDS011;4981;50.966;4.842;2023-05-14T18:20:29;15.53;;;7.60;;
9884;SDS011;4981;50.966;4.842;2023-05-14T18:22:56;13.97;;;7.77;;
9884;SDS011;4981;50.966;4.842;2023-05-14T18:25:24;14.70;;;7.97;;
9884;SDS011;4981;50.966;4.842;2023-05-14T18:27:51;16.03;;;7.70;;
9884;SDS011;4981;50.966;4.842;2023-05-14T18:30:18;14.97;;;7.80;;
9884;SDS011;4981;50.966;4.842;2023-05-14T18:32:45;13.30;;;6.83;;
9884;SDS011;4981;50.966;4.842;2023-05-14T18:35:14;15.77;;;7.47;;
9884;SDS011;4981;50.966;4.842;2023-05-14T18:37:41;14.97;;;7.07;;
9884;SDS011;4981;50.966;4.842;2023-05-14T18:40:08;12.23;;;6.67;;
9884;SDS011;4981;50.966;4.842;2023-05-14T18:42:38;12.67;;;7.87;;
9884;SDS011;4981;50.966;4.842;2023-05-14T18:45:05;11.37;;;7.13;;
9884;SDS011;4981;50.966;4.842;2023-05-14T18:47:33;11.27;;;7.43;;
9884;SDS011;4981;50.966;4.842;2023-05-14T18:50:00;10.37;;;7.27;;
9884;SDS011;4981;50.966;4.842;2023-05-14T18:52:28;12.80;;;7.23;;
9884;SDS011;4981;50.966;4.842;2023-05-14T18:54:56;16.43;;;7.40;;
9884;SDS011;4981;50.966;4.842;2023-05-14T18:57:23;11.40;;;7.53;;
9884;SDS011;4981;50.966;4.842;2023-05-14T18:59:53;12.33;;;7.80;;
9884;SDS011;4981;50.966;4.842;2023-05-14T19:02:20;13.40;;;7.40;;
9884;SDS011;4981;50.966;4.842;2023-05-14T19:04:47;12.50;;;7.43;;
9884;SDS011;4981;50.966;4.842;2023-05-14T19:07:14;11.87;;;7.10;;
9884;SDS011;4981;50.966;4.842;2023-05-14T19:09:42;14.17;;;6.70;;
9884;SDS011;4981;50.966;4.842;2023-05-14T19:12:09;9.43;;;6.70;;
9884;SDS011;4981;50.966;4.842;2023-05-14T19:14:36;13.70;;;7.00;;
9884;SDS011;4981;50.966;4.842;2023-05-14T19:17:03;12.03;;;6.47;;
9884;SDS011;4981;50.966;4.842;2023-05-14T19:19:30;11.90;;;6.83;;
9884;SDS011;4981;50.966;4.842;2023-05-14T19:21:57;8.17;;;5.93;;
9884;SDS011;4981;50.966;4.842;2023-05-14T19:24:24;11.67;;;6.07;;
9884;SDS011;4981;50.966;4.842;2023-05-14T19:26:53;9.23;;;5.93;;
9884;SDS011;4981;50.966;4.842;2023-05-14T19:29:19;10.30;;;6.40;;
9884;SDS011;4981;50.966;4.842;2023-05-14T19:31:46;12.27;;;6.10;;
9884;SDS011;4981;50.966;4.842;2023-05-14T19:34:13;13.37;;;6.00;;
9884;SDS011;4981;50.966;4.842;2023-05-14T19:36:41;12.13;;;6.50;;
9884;SDS011;4981;50.966;4.842;2023-05-14T19:39:08;12.20;;;6.37;;
9884;SDS011;4981;50.966;4.842;2023-05-14T19:41:36;10.43;;;6.83;;
9884;SDS011;4981;50.966;4.842;2023-05-14T19:44:05;12.50;;;7.03;;
9884;SDS011;4981;50.966;4.842;2023-05-14T19:46:32;10.00;;;6.83;;
9884;SDS011;4981;50.966;4.842;2023-05-14T19:48:59;14.87;;;6.93;;
9884;SDS011;4981;50.966;4.842;2023-05-14T19:51:26;11.27;;;6.60;;
9884;SDS011;4981;50.966;4.842;2023-05-14T19:53:53;11.10;;;6.67;;
9884;SDS011;4981;50.966;4.842;2023-05-14T19:56:19;11.57;;;6.87;;
9884;SDS011;4981;50.966;4.842;2023-05-14T19:58:46;9.03;;;6.10;;
9884;SDS011;4981;50.966;4.842;2023-05-14T20:01:15;12.90;;;6.97;;
9884;SDS011;4981;50.966;4.842;2023-05-14T20:03:42;8.57;;;6.27;;
9884;SDS011;4981;50.966;4.842;2023-05-14T20:06:10;12.60;;;7.47;;
9884;SDS011;4981;50.966;4.842;2023-05-14T20:08:37;10.07;;;7.20;;
9884;SDS011;4981;50.966;4.842;2023-05-14T20:11:05;11.37;;;7.37;;
9884;SDS011;4981;50.966;4.842;2023-05-14T20:13:32;15.00;;;9.97;;
9884;SDS011;4981;50.966;4.842;2023-05-14T20:16:00;15.57;;;9.37;;
9884;SDS011;4981;50.966;4.842;2023-05-14T20:18:29;15.30;;;10.43;;
9884;SDS011;4981;50.966;4.842;2023-05-14T20:20:56;16.87;;;10.73;;
9884;SDS011;4981;50.966;4.842;2023-05-14T20:23:23;15.43;;;11.70;;
9884;SDS011;4981;50.966;4.842;2023-05-14T20:25:50;13.20;;;10.97;;
9884;SDS011;4981;50.966;4.842;2023-05-14T20:28:17;20.03;;;12.00;;
9884;SDS011;4981;50.966;4.842;2023-05-14T20:30:44;19.87;;;12.37;;
9884;SDS011;4981;50.966;4.842;2023-05-14T20:33:11;15.00;;;11.90;;
9884;SDS011;4981;50.966;4.842;2023-05-14T20:35:40;18.60;;;12.93;;
9884;SDS011;4981;50.966;4.842;2023-05-14T20:38:08;20.23;;;13.43;;
9884;SDS011;4981;50.966;4.842;2023-05-14T20:40:36;17.50;;;13.03;;
9884;SDS011;4981;50.966;4.842;2023-05-14T20:43:02;17.63;;;13.23;;
9884;SDS011;4981;50.966;4.842;2023-05-14T20:45:29;19.47;;;14.47;;
9884;SDS011;4981;50.966;4.842;2023-05-14T20:47:56;21.17;;;14.13;;
9884;SDS011;4981;50.966;4.842;2023-05-14T20:50:23;18.17;;;14.70;;
9884;SDS011;4981;50.966;4.842;2023-05-14T20:52:53;17.30;;;14.77;;
9884;SDS011;4981;50.966;4.842;2023-05-14T20:55:20;19.33;;;15.37;;
9884;SDS011;4981;50.966;4.842;2023-05-14T20:57:47;22.80;;;15.90;;
9884;SDS011;4981;50.966;4.842;2023-05-14T21:00:15;18.43;;;15.50;;
9884;SDS011;4981;50.966;4.842;2023-05-14T21:02:42;22.73;;;16.20;;
9884;SDS011;4981;50.966;4.842;2023-05-14T21:05:09;22.57;;;15.70;;
9884;SDS011;4981;50.966;4.842;2023-05-14T21:07:37;22.07;;;15.47;;